Time;durP1;ratioP1;P1;durP2;ratioP2;P2;SDS_P1;SDS_P2;PMS_P1;PMS_P2;Temp;Humidity;BMP_temperature;BMP_pressure;BME280_temperature;BME280_humidity;BME280_pressure;Samples;Min_cycle;Max_cycle;Signal;HPM_P1;HPM_P2
2023/05/22 00:02:14;;;;;;;8.00;7.20;;;;;;;21.80;64.98;100771.53;5076649;28;20055;-48
2023/05/22 00:04:42;;;;;;;9.10;8.20;;;;;;;21.81;64.94;100769.69;5076277;28;20049;-49
2023/05/22 00:07:09;;;;;;;9.52;8.52;;;;;;;21.80;65.03;100774.25;5076277;28;20499;-48
2023/05/22 00:09:37;;;;;;;8.35;7.55;;;;;;;21.80;65.00;100776.09;5076135;28;20053;-51
2023/05/22 00:12:04;;;;;;;9.63;7.93;;;;;;;21.80;64.91;100779.63;5076117;28;20048;-48
2023/05/22 00:14:32;;;;;;;8.38;7.30;;;;;;;21.80;64.92;100779.63;5075932;28;20049;-49
2023/05/22 00:16:59;;;;;;;10.32;8.07;;;;;;;21.81;64.82;100785.84;5076172;28;20051;-48
2023/05/22 00:19:29;;;;;;;8.63;7.72;;;;;;;21.80;64.82;100792.25;5075933;28;20123;-49
2023/05/22 00:21:57;;;;;;;9.23;8.25;;;;;;;21.81;64.60;100791.25;5076369;28;20053;-57
2023/05/22 00:24:24;;;;;;;7.95;7.15;;;;;;;21.80;64.74;100787.72;5076123;28;20403;-57
2023/05/22 00:26:51;;;;;;;7.68;6.90;;;;;;;21.79;64.76;100786.00;5076421;28;20048;-57
2023/05/22 00:29:18;;;;;;;7.60;6.70;;;;;;;21.80;64.71;100795.78;5075073;28;20052;-57
2023/05/22 00:31:46;;;;;;;9.32;8.35;;;;;;;21.80;64.59;100794.94;5074921;28;20424;-48
2023/05/22 00:34:13;;;;;;;9.07;7.05;;;;;;;21.80;64.52;100794.94;5074783;28;20056;-47
2023/05/22 00:36:41;;;;;;;8.18;7.38;;;;;;;21.80;64.43;100789.56;5075831;28;20044;-48
2023/05/22 00:39:10;;;;;;;8.40;7.22;;;;;;;21.79;64.53;100787.84;5076113;28;20068;-49
2023/05/22 00:41:37;;;;;;;9.10;7.38;;;;;;;21.80;64.45;100789.56;5075965;28;20388;-49
2023/05/22 00:44:04;;;;;;;8.75;7.85;;;;;;;21.79;64.50;100787.84;5075719;28;20045;-48
2023/05/22 00:46:32;;;;;;;8.77;7.88;;;;;;;21.79;64.40;100788.69;5074649;28;20055;-48
2023/05/22 00:48:59;;;;;;;8.75;7.78;;;;;;;21.80;64.32;100778.78;5074106;28;20052;-49
2023/05/22 00:51:27;;;;;;;7.93;7.22;;;;;;;21.79;64.27;100788.69;5075804;28;20053;-57
2023/05/22 00:53:55;;;;;;;7.82;7.10;;;;;;;21.80;64.24;100785.00;5075602;28;20055;-57
2023/05/22 00:56:23;;;;;;;8.63;7.75;;;;;;;21.80;64.33;100778.78;5074407;28;20044;-57
2023/05/22 00:58:51;;;;;;;8.10;7.28;;;;;;;21.78;64.37;100776.22;5075358;28;20056;-57
2023/05/22 01:01:19;;;;;;;7.97;7.28;;;;;;;21.78;64.31;100765.44;5075293;28;20048;-48
2023/05/22 01:03:46;;;;;;;9.52;8.52;;;;;;;21.79;64.25;100768.97;5057496;28;20052;-49
2023/05/22 01:06:16;;;;;;;8.85;7.95;;;;;;;21.78;64.17;100769.97;5075259;28;20055;-49
2023/05/22 01:08:44;;;;;;;8.68;7.55;;;;;;;21.78;64.25;100765.44;5075228;28;20071;-49
2023/05/22 01:11:16;;;;;;;7.65;6.95;;;;;;;21.78;64.34;100765.44;5075255;28;20511;-48
2023/05/22 01:14:09;;;;;;;8.20;7.45;;;;;;;21.78;64.33;100768.13;5074203;28;20055;-48
2023/05/22 01:16:40;;;;;;;7.65;6.95;;;;;;;21.79;64.26;100774.38;5075151;28;20056;-48
2023/05/22 01:19:30;;;;;;;8.70;7.60;;;;;;;21.78;64.31;100768.13;5075094;28;20107;-49
2023/05/22 01:22:20;;;;;;;8.48;7.65;;;;;;;21.78;64.15;100767.28;5075060;28;20059;-57
2023/05/22 01:24:50;;;;;;;8.95;8.07;;;;;;;21.78;64.53;100768.13;5073779;28;20056;-57
2023/05/22 01:27:53;;;;;;;9.32;8.43;;;;;;;21.78;64.17;100775.38;5057553;28;20051;-57
2023/05/22 01:30:38;;;;;;;8.23;7.43;;;;;;;21.79;64.26;100782.44;5073567;28;20055;-48
2023/05/22 01:33:07;;;;;;;8.18;7.38;;;;;;;21.78;64.79;100770.81;5073319;28;20401;-50
2023/05/22 01:35:38;;;;;;;8.23;6.88;;;;;;;21.79;64.89;100771.66;5074734;28;20045;-49
2023/05/22 01:38:07;;;;;;;7.50;6.68;;;;;;;21.79;65.04;100769.81;5073365;28;20049;-48
2023/05/22 01:40:36;;;;;;;8.23;7.38;;;;;;;21.81;65.46;100780.47;5074531;28;20476;-57
2023/05/22 01:43:04;;;;;;;8.48;7.65;;;;;;;21.80;65.45;100778.78;5073198;28;20052;-57
2023/05/22 01:45:31;;;;;;;8.40;7.63;;;;;;;21.79;65.09;100783.28;5074358;28;20052;-57
2023/05/22 01:48:01;;;;;;;8.20;7.43;;;;;;;21.79;64.64;100777.06;5074489;28;20048;-57
2023/05/22 01:50:29;;;;;;;8.48;7.68;;;;;;;21.78;64.32;100776.22;5074580;28;20048;-57
2023/05/22 01:53:22;;;;;;;8.00;7.20;;;;;;;21.78;64.19;100770.81;5072859;28;20051;-57
2023/05/22 01:56:00;;;;;;;8.32;7.53;;;;;;;21.78;64.34;100765.44;5074601;28;20056;-57
2023/05/22 01:58:31;;;;;;;9.45;8.15;;;;;;;21.79;63.75;100758.19;5072821;28;20044;-57
2023/05/22 02:01:00;;;;;;;8.07;7.22;;;;;;;21.79;63.90;100766.28;5074053;28;20519;-48
2023/05/22 02:03:30;;;;;;;8.95;8.05;;;;;;;21.78;64.11;100770.81;5074114;28;20052;-48
2023/05/22 02:06:00;;;;;;;8.70;7.47;;;;;;;21.79;63.93;100774.38;5073624;28;20045;-49
2023/05/22 02:08:29;;;;;;;8.77;7.90;;;;;;;21.78;64.05;100770.81;5073611;28;20052;-49
2023/05/22 02:10:59;;;;;;;8.18;7.38;;;;;;;21.79;64.03;100774.38;5073589;28;20049;-50
2023/05/22 02:13:27;;;;;;;8.57;7.70;;;;;;;21.78;63.97;100787.00;5074181;28;20044;-48
2023/05/22 02:15:57;;;;;;;8.57;7.65;;;;;;;21.78;64.00;100778.91;5072693;28;20049;-48
2023/05/22 02:18:29;;;;;;;9.98;7.80;;;;;;;21.78;63.97;100776.22;5072880;28;20051;-49
2023/05/22 02:20:57;;;;;;;7.95;7.25;;;;;;;21.78;64.00;100776.22;5072163;28;20053;-57
2023/05/22 02:23:28;;;;;;;7.85;7.13;;;;;;;21.78;63.90;100770.81;5072242;28;20055;-57
2023/05/22 02:25:56;;;;;;;9.38;8.43;;;;;;;21.78;63.92;100769.97;5056023;28;20044;-57
2023/05/22 02:28:23;;;;;;;9.07;8.18;;;;;;;21.78;63.87;100770.81;5073343;28;20045;-57
2023/05/22 02:30:50;;;;;;;8.40;7.40;;;;;;;21.78;63.80;100767.28;5073502;28;20044;-57
2023/05/22 02:33:18;;;;;;;8.10;7.30;;;;;;;21.78;63.89;100775.38;5073892;28;20048;-57
2023/05/22 02:35:48;;;;;;;8.35;7.55;;;;;;;21.78;63.78;100773.53;5072544;28;20057;-57
2023/05/22 02:38:16;;;;;;;8.50;7.70;;;;;;;21.78;63.94;100778.06;5072533;28;20497;-57
2023/05/22 02:40:44;;;;;;;9.10;7.55;;;;;;;21.77;63.80;100769.13;5072555;28;20052;-57
2023/05/22 02:43:11;;;;;;;8.23;7.40;;;;;;;21.78;63.83;100769.97;5073584;28;20064;-57
2023/05/22 02:45:39;;;;;;;8.18;7.47;;;;;;;21.78;63.87;100778.06;5072446;28;20053;-57
2023/05/22 02:48:06;;;;;;;8.50;7.45;;;;;;;21.78;63.75;100780.75;5072071;28;20044;-57
2023/05/22 02:50:34;;;;;;;8.23;7.43;;;;;;;21.78;63.90;100783.47;5071943;28;20063;-48
2023/05/22 02:53:01;;;;;;;7.90;7.10;;;;;;;21.78;63.79;100778.06;5072362;28;20107;-48
2023/05/22 02:55:29;;;;;;;8.27;7.47;;;;;;;21.77;63.88;100782.63;5071985;28;20053;-49
2023/05/22 02:57:56;;;;;;;8.85;8.02;;;;;;;21.76;63.86;100778.22;5072050;28;20045;-48
2023/05/22 03:00:24;;;;;;;8.13;7.32;;;;;;;21.78;63.84;100791.53;5072606;28;20048;-50
2023/05/22 03:02:52;;;;;;;8.52;7.70;;;;;;;21.77;63.92;100787.16;5072034;28;20665;-49
2023/05/22 03:05:19;;;;;;;8.82;7.95;;;;;;;21.77;63.90;100787.16;5073521;28;20044;-49
2023/05/22 03:07:47;;;;;;;8.70;7.80;;;;;;;21.78;63.87;100783.47;5072442;28;20048;-48
2023/05/22 03:10:16;;;;;;;7.28;6.57;;;;;;;21.78;64.02;100786.16;5073433;28;20063;-49
2023/05/22 03:12:43;;;;;;;8.98;7.13;;;;;;;21.76;63.85;100786.31;5055720;28;20062;-50
2023/05/22 03:15:10;;;;;;;9.70;8.25;;;;;;;21.77;63.88;100787.16;5072200;28;20051;-48
2023/05/22 03:17:40;;;;;;;8.48;7.60;;;;;;;21.77;63.88;100789.84;5072176;28;20055;-48
2023/05/22 03:20:08;;;;;;;8.45;7.35;;;;;;;21.76;63.91;100780.94;5072339;28;20048;-57
2023/05/22 03:22:35;;;;;;;9.18;7.80;;;;;;;21.77;63.65;100781.78;5073386;28;20044;-57
2023/05/22 03:25:05;;;;;;;9.02;7.35;;;;;;;21.77;63.81;100789.84;5072205;28;20059;-57
2023/05/22 03:27:32;;;;;;;8.90;8.00;;;;;;;21.77;63.76;100779.06;5072911;28;20049;-57
2023/05/22 03:30:01;;;;;;;8.55;7.28;;;;;;;21.76;63.83;100783.63;5071970;28;20049;-57
2023/05/22 03:32:36;;;;;;;8.68;7.18;;;;;;;21.75;63.71;100784.59;5072525;28;20044;-57
2023/05/22 03:35:06;;;;;;;9.00;7.57;;;;;;;21.76;63.72;100785.47;5071715;28;20060;-57
2023/05/22 03:37:33;;;;;;;8.40;7.53;;;;;;;21.76;63.71;100790.84;5071741;28;20052;-57
2023/05/22 03:40:03;;;;;;;7.72;7.03;;;;;;;21.76;63.87;100793.56;5072206;28;20052;-57
2023/05/22 03:42:30;;;;;;;8.85;7.35;;;;;;;21.75;63.65;100789.97;5072583;28;20051;-57
2023/05/22 03:44:57;;;;;;;8.52;7.72;;;;;;;21.75;63.71;100791.84;5072445;28;20408;-57
2023/05/22 03:47:25;;;;;;;7.85;7.05;;;;;;;21.76;63.65;100790.84;5071372;28;20052;-57
2023/05/22 03:49:53;;;;;;;7.78;7.05;;;;;;;21.75;63.56;100802.59;5072886;28;20067;-49
2023/05/22 03:52:22;;;;;;;8.98;8.07;;;;;;;21.74;63.60;100793.69;5071675;28;20053;-49
2023/05/22 03:54:49;;;;;;;8.65;7.47;;;;;;;21.75;63.64;100791.84;5072436;28;20048;-48
2023/05/22 03:57:18;;;;;;;8.93;8.00;;;;;;;21.74;63.55;100793.69;5071587;28;20071;-49
2023/05/22 03:59:46;;;;;;;7.90;7.20;;;;;;;21.73;63.43;100787.44;5071829;28;20489;-50
2023/05/22 04:02:15;;;;;;;8.20;7.40;;;;;;;21.73;63.87;100787.44;5073503;28;20055;-48
2023/05/22 04:04:45;;;;;;;8.45;7.65;;;;;;;21.75;63.51;100789.13;5075236;28;20400;-49
2023/05/22 04:07:12;;;;;;;7.60;6.68;;;;;;;21.73;63.50;100784.75;5076377;28;20055;-48
2023/05/22 04:09:40;;;;;;;7.43;6.65;;;;;;;21.75;63.44;100791.84;5076218;28;20495;-50
2023/05/22 04:12:08;;;;;;;7.82;7.03;;;;;;;21.75;63.43;100794.53;5076602;28;20048;-48
2023/05/22 04:14:35;;;;;;;7.40;6.70;;;;;;;21.74;63.40;100799.06;5076287;28;20056;-49
2023/05/22 04:17:02;;;;;;;7.65;6.93;;;;;;;21.73;63.44;100800.91;5076112;28;20048;-49
2023/05/22 04:19:30;;;;;;;9.45;7.55;;;;;;;21.73;63.40;100811.69;5076231;28;20040;-49
2023/05/22 04:21:58;;;;;;;7.40;6.72;;;;;;;21.72;63.36;100807.31;5076289;28;20384;-47
2023/05/22 04:24:26;;;;;;;7.45;6.70;;;;;;;21.73;63.37;100811.69;5075997;28;20507;-48
2023/05/22 04:26:53;;;;;;;8.75;7.95;;;;;;;21.74;63.38;100807.16;5075655;28;20044;-49
2023/05/22 04:29:21;;;;;;;7.60;6.90;;;;;;;21.73;63.33;100813.53;5075825;28;20393;-50
2023/05/22 04:31:48;;;;;;;8.48;7.47;;;;;;;21.73;63.44;100813.53;5074710;28;20056;-49
2023/05/22 04:34:17;;;;;;;7.63;6.82;;;;;;;21.72;63.24;100812.69;5074302;28;20496;-49
2023/05/22 04:36:45;;;;;;;9.10;6.88;;;;;;;21.73;63.34;100814.38;5074566;28;20496;-49
2023/05/22 04:39:13;;;;;;;8.70;6.63;;;;;;;21.72;63.28;100815.41;5074441;28;20408;-49
2023/05/22 04:41:41;;;;;;;9.82;8.13;;;;;;;21.72;63.22;100822.63;5058254;28;20055;-57
2023/05/22 04:44:09;;;;;;;7.65;6.90;;;;;;;21.73;63.35;100830.56;5075660;28;20492;-57
2023/05/22 04:46:37;;;;;;;8.23;7.43;;;;;;;21.72;63.27;100823.47;5075616;28;20048;-57
2023/05/22 04:49:04;;;;;;;8.20;6.95;;;;;;;21.73;63.12;100827.03;5073842;28;20041;-58
2023/05/22 04:51:33;;;;;;;8.45;7.40;;;;;;;21.72;63.20;100826.19;5075324;28;20052;-48
2023/05/22 04:54:01;;;;;;;9.15;7.43;;;;;;;21.73;63.21;100827.03;5073788;28;20059;-49
2023/05/22 04:56:30;;;;;;;8.20;7.25;;;;;;;21.72;63.13;100831.56;5074036;28;20511;-48
2023/05/22 04:59:07;;;;;;;8.40;7.50;;;;;;;21.73;63.24;100827.88;5073980;28;20052;-49
2023/05/22 05:01:37;;;;;;;;;;;;;;;21.72;63.20;100836.94;5074728;28;20052;-48
2023/05/22 05:04:04;;;;;;;7.93;7.22;;;;;;;21.72;63.18;100836.09;5075302;28;19927;-49
2023/05/22 05:06:33;;;;;;;8.63;7.45;;;;;;;21.72;63.18;100836.94;5074857;28;20400;-49
2023/05/22 05:09:05;;;;;;;8.65;7.85;;;;;;;21.72;63.14;100836.94;5057498;28;20051;-49
2023/05/22 05:11:33;;;;;;;8.15;7.35;;;;;;;21.72;63.26;100834.25;5074204;28;20060;-57
2023/05/22 05:14:01;;;;;;;7.93;6.90;;;;;;;21.71;63.17;100840.66;5074142;28;20048;-57
2023/05/22 05:16:28;;;;;;;8.75;7.05;;;;;;;21.72;63.16;100842.34;5073852;28;20052;-57
2023/05/22 05:18:56;;;;;;;8.63;7.72;;;;;;;21.71;63.18;100851.44;5075003;28;20115;-57
2023/05/22 05:21:26;;;;;;;8.38;7.50;;;;;;;21.72;63.12;100845.03;5075005;28;20377;-48
2023/05/22 05:23:55;;;;;;;8.65;7.45;;;;;;;21.72;63.10;100845.03;5073918;28;20527;-50
2023/05/22 05:26:23;;;;;;;8.82;7.93;;;;;;;21.72;63.14;100841.50;5073746;28;20063;-48
2023/05/22 05:28:50;;;;;;;8.93;7.63;;;;;;;21.71;63.03;100837.97;5074776;28;20044;-52
2023/05/22 05:31:19;;;;;;;8.75;7.85;;;;;;;21.72;62.95;100849.59;5073837;28;20048;-57
2023/05/22 05:34:06;;;;;;;9.30;7.70;;;;;;;21.72;63.02;100846.88;5074709;28;20504;-57
2023/05/22 05:37:08;;;;;;;8.75;7.85;;;;;;;21.72;63.06;100842.34;5079753;28;20052;-57
2023/05/22 05:39:37;;;;;;;9.25;8.10;;;;;;;21.72;63.13;100845.03;5073787;28;20064;-57
2023/05/22 05:42:06;;;;;;;9.05;8.15;;;;;;;21.73;63.02;100841.34;5073713;28;20047;-57
2023/05/22 05:44:33;;;;;;;8.15;7.32;;;;;;;21.72;63.00;100844.19;5073607;28;20063;-57
2023/05/22 05:47:03;;;;;;;9.40;8.50;;;;;;;21.73;63.10;100844.03;5073415;28;20060;-57
2023/05/22 05:49:31;;;;;;;8.35;7.53;;;;;;;21.73;62.97;100843.19;5073335;28;20045;-57
2023/05/22 05:52:01;;;;;;;8.65;7.85;;;;;;;21.72;62.97;100850.44;5073436;28;20052;-50
2023/05/22 05:54:29;;;;;;;8.35;7.45;;;;;;;21.73;63.13;100848.56;5073356;28;20052;-49
2023/05/22 05:57:02;;;;;;;8.48;7.68;;;;;;;21.73;63.15;100853.97;5072935;28;20063;-49
2023/05/22 05:59:30;;;;;;;10.35;9.23;;;;;;;21.74;63.20;100861.03;5074094;28;20052;-50
2023/05/22 06:02:16;;;;;;;8.82;8.02;;;;;;;21.73;63.19;100862.91;5081304;28;20494;-57
2023/05/22 06:04:47;;;;;;;9.40;8.25;;;;;;;21.73;63.21;100864.75;5057096;28;20396;-57
2023/05/22 06:07:16;;;;;;;8.85;8.00;;;;;;;21.74;63.08;100863.75;5073012;28;20055;-57
2023/05/22 06:09:47;;;;;;;8.88;8.07;;;;;;;21.73;62.96;100862.91;5072265;28;20044;-55
2023/05/22 06:12:41;;;;;;;9.23;8.32;;;;;;;21.75;63.14;100861.88;5073159;28;20067;-57
2023/05/22 06:15:08;;;;;;;8.57;7.78;;;;;;;21.75;63.24;100861.88;5073920;28;20385;-57
2023/05/22 06:17:36;;;;;;;10.70;8.27;;;;;;;21.76;63.00;100859.06;5072856;28;20053;-57
2023/05/22 06:20:05;;;;;;;9.27;8.43;;;;;;;21.76;63.27;100869.00;5072803;28;20044;-57
2023/05/22 06:22:34;;;;;;;9.55;8.50;;;;;;;21.76;63.12;100869.00;5072345;28;20055;-57
2023/05/22 06:25:03;;;;;;;8.73;7.80;;;;;;;21.77;63.34;100876.09;5072639;28;20056;-57
2023/05/22 06:27:33;;;;;;;8.52;7.47;;;;;;;21.79;63.47;100880.31;5072267;28;20049;-58
2023/05/22 06:30:01;;;;;;;7.82;7.07;;;;;;;21.80;63.56;100881.19;5092483;28;20483;-57
2023/05/22 06:32:35;;;;;;;9.27;7.82;;;;;;;21.81;63.45;100882.88;5092788;28;20055;-58
2023/05/22 06:35:03;;;;;;;8.40;7.50;;;;;;;21.81;63.46;100878.34;5092207;28;20052;-58
2023/05/22 06:37:34;;;;;;;8.32;7.57;;;;;;;21.83;63.46;100870.09;5091593;28;20056;-61
2023/05/22 06:40:02;;;;;;;9.43;7.72;;;;;;;21.89;63.61;100878.44;5071646;28;20047;-59
2023/05/22 06:42:42;;;;;;;8.95;8.00;;;;;;;21.95;63.22;100877.84;5089074;28;20072;-57
2023/05/22 06:45:29;;;;;;;11.75;10.43;;;;;;;21.97;62.51;100875.84;5074316;28;20061;-58
2023/05/22 06:48:16;;;;;;;10.23;9.20;;;;;;;22.00;62.58;100871.16;5080636;28;20052;-57
2023/05/22 06:51:13;;;;;;;11.07;9.15;;;;;;;22.03;62.66;100876.25;5068596;28;20055;-58
2023/05/22 06:53:41;;;;;;;8.90;8.00;;;;;;;22.06;62.90;100876.81;5088909;28;20067;-57
2023/05/22 06:56:17;;;;;;;9.52;8.52;;;;;;;22.09;62.72;100875.69;5089411;28;20052;-57
2023/05/22 06:58:53;;;;;;;8.73;7.93;;;;;;;22.11;62.80;100873.66;5088213;28;20063;-58
2023/05/22 07:01:24;;;;;;;9.73;8.70;;;;;;;22.12;63.09;100870.84;5071965;28;20060;-59
2023/05/22 07:04:04;;;;;;;8.93;8.05;;;;;;;22.13;62.88;100871.72;5092234;28;20048;-58
2023/05/22 07:06:37;;;;;;;8.90;8.00;;;;;;;22.14;63.04;100874.25;5091915;28;20055;-58
2023/05/22 07:09:07;;;;;;;10.45;8.68;;;;;;;22.16;63.01;100874.09;5071189;28;20052;-60
2023/05/22 07:11:36;;;;;;;9.38;7.85;;;;;;;22.18;62.86;100881.03;5072136;28;20052;-59
2023/05/22 07:14:04;;;;;;;9.20;8.27;;;;;;;22.20;63.01;100884.47;5089075;28;20052;-58
2023/05/22 07:16:31;;;;;;;8.80;7.90;;;;;;;22.21;62.94;100875.34;5091962;28;20064;-58
2023/05/22 07:19:05;;;;;;;10.65;8.32;;;;;;;22.25;62.88;100888.56;5071277;28;20055;-57
2023/05/22 07:21:34;;;;;;;;;;;;;;;22.25;62.86;100886.69;5075755;28;20043;-53
2023/05/22 07:24:07;;;;;;;9.45;8.55;;;;;;;22.25;63.05;100880.47;5091640;28;19920;-51
2023/05/22 07:26:45;;;;;;;8.48;7.55;;;;;;;22.21;63.04;100879.91;5091505;28;20040;-49
2023/05/22 07:29:13;;;;;;;8.63;7.75;;;;;;;22.19;63.03;100876.50;5091014;28;20048;-53
2023/05/22 07:31:41;;;;;;;8.15;7.35;;;;;;;22.17;63.14;100879.34;5091493;28;20052;-58
2023/05/22 07:34:10;;;;;;;8.20;7.40;;;;;;;22.18;63.16;100881.03;5092569;28;20562;-58
2023/05/22 07:36:37;;;;;;;8.80;7.90;;;;;;;22.20;63.25;100884.47;5091623;28;20048;-58
2023/05/22 07:39:07;;;;;;;9.02;8.13;;;;;;;22.21;63.15;100883.44;5095084;28;20067;-58
2023/05/22 07:41:37;;;;;;;9.63;7.85;;;;;;;22.20;63.02;100873.66;5096055;28;20621;-53
2023/05/22 07:44:07;;;;;;;8.50;7.60;;;;;;;22.24;62.99;100881.44;5095483;28;20363;-54
2023/05/22 07:46:37;;;;;;;10.45;8.35;;;;;;;22.24;63.01;100890.41;5095600;28;20055;-54
2023/05/22 07:49:11;;;;;;;9.32;7.70;;;;;;;22.26;62.87;100891.09;5095212;28;20052;-54
2023/05/22 07:51:41;;;;;;;8.23;7.43;;;;;;;22.26;62.56;100887.53;5095338;28;20411;-53
2023/05/22 07:54:09;;;;;;;10.10;8.43;;;;;;;22.28;62.56;100890.94;5095599;28;20407;-53
2023/05/22 07:56:40;;;;;;;8.65;7.75;;;;;;;22.28;62.64;100885.53;5095255;28;20059;-50
2023/05/22 07:59:10;;;;;;;8.40;7.55;;;;;;;22.31;62.60;100882.53;5095189;28;20052;-49
2023/05/22 08:01:40;;;;;;;9.38;7.60;;;;;;;22.32;62.50;100878.84;5096901;28;20048;-49
2023/05/22 08:04:07;;;;;;;8.43;7.63;;;;;;;22.32;62.65;100879.72;5096512;28;20404;-50
2023/05/22 08:06:35;;;;;;;10.77;8.38;;;;;;;22.33;62.43;100884.09;5096370;28;20048;-50
2023/05/22 08:09:05;;;;;;;9.23;7.80;;;;;;;22.33;62.62;100873.31;5096232;28;20048;-49
2023/05/22 08:11:33;;;;;;;10.48;7.68;;;;;;;22.36;62.34;100872.13;5095180;28;20051;-59
2023/05/22 08:14:05;;;;;;;8.25;7.30;;;;;;;22.37;62.36;100871.16;5095664;28;20388;-59
2023/05/22 08:16:32;;;;;;;9.30;8.40;;;;;;;22.37;61.99;100865.78;5094481;28;20048;-60
2023/05/22 08:18:59;;;;;;;8.50;7.47;;;;;;;22.39;62.01;100863.75;5096217;28;20040;-59
2023/05/22 08:21:27;;;;;;;9.10;7.80;;;;;;;22.39;62.11;100867.31;5096108;28;20051;-53
2023/05/22 08:23:54;;;;;;;9.50;7.68;;;;;;;22.40;61.81;100857.34;5096094;28;20048;-53
2023/05/22 08:26:24;;;;;;;8.60;7.78;;;;;;;22.40;61.62;100858.22;5095761;28;20066;-53
2023/05/22 08:28:52;;;;;;;8.68;7.88;;;;;;;22.40;61.44;100857.34;5095878;28;20048;-51
2023/05/22 08:31:19;;;;;;;8.60;7.70;;;;;;;22.42;61.46;100855.38;5095614;28;20044;-49
2023/05/22 08:33:47;;;;;;;8.68;7.78;;;;;;;22.42;61.26;100858.06;5095645;28;20051;-52
2023/05/22 08:36:15;;;;;;;9.10;8.00;;;;;;;22.43;61.08;100851.66;5095378;28;20052;-50
2023/05/22 08:38:42;;;;;;;8.57;7.65;;;;;;;22.44;60.97;100853.34;5095864;28;20044;-53
2023/05/22 08:41:10;;;;;;;8.45;7.53;;;;;;;22.43;60.85;100852.50;5095768;28;20051;-59
2023/05/22 08:43:39;;;;;;;8.77;7.80;;;;;;;22.43;60.77;100851.66;5095803;28;20376;-59
2023/05/22 08:46:08;;;;;;;8.75;7.55;;;;;;;22.44;60.69;100847.97;5095231;28;20052;-59
2023/05/22 08:48:36;;;;;;;8.75;7.85;;;;;;;22.44;60.72;100847.97;5094672;28;20044;-60
2023/05/22 08:51:04;;;;;;;9.18;7.43;;;;;;;22.43;60.81;100844.41;5095256;28;20399;-59
2023/05/22 08:53:36;;;;;;;8.95;7.70;;;;;;;22.44;60.80;100848.84;5095162;28;20051;-59
2023/05/22 08:56:05;;;;;;;8.50;7.60;;;;;;;22.45;60.74;100852.38;5095266;28;20051;-59
2023/05/22 08:58:37;;;;;;;8.27;7.47;;;;;;;22.44;60.61;100846.13;5095212;28;20051;-59
2023/05/22 09:01:08;;;;;;;9.55;8.57;;;;;;;22.45;60.50;100844.28;5095417;28;20142;-59
2023/05/22 09:03:36;;;;;;;9.30;7.45;;;;;;;22.44;60.31;100850.66;5095450;28;20048;-59
2023/05/22 09:06:08;;;;;;;10.70;8.20;;;;;;;22.45;60.38;100849.69;5095337;28;20048;-59
2023/05/22 09:08:37;;;;;;;8.50;7.65;;;;;;;22.46;60.41;100854.06;5095288;28;20504;-59
2023/05/22 09:11:04;;;;;;;9.80;8.05;;;;;;;22.47;60.52;100842.28;5094770;28;20376;-53
2023/05/22 09:13:31;;;;;;;12.43;8.77;;;;;;;22.46;59.71;100848.66;5094982;28;20047;-52
2023/05/22 09:16:08;;;;;;;11.95;10.38;;;;;;;22.43;59.25;100843.56;5094112;28;20067;-53
2023/05/22 09:18:39;;;;;;;10.93;9.55;;;;;;;22.41;58.57;100845.59;5094968;28;20052;-51
2023/05/22 09:21:08;;;;;;;11.48;10.27;;;;;;;22.38;58.12;100844.03;5095071;28;20044;-51
2023/05/22 09:23:59;;;;;;;11.60;10.40;;;;;;;22.34;57.76;100839.94;5094938;28;20044;-51
2023/05/22 09:26:27;;;;;;;11.23;10.00;;;;;;;22.34;57.70;100841.78;5094861;28;20056;-52
2023/05/22 09:28:55;;;;;;;10.85;9.48;;;;;;;22.33;57.42;100843.66;5094708;28;20048;-53
2023/05/22 09:31:23;;;;;;;10.25;9.25;;;;;;;22.32;57.60;100836.56;5094685;28;20070;-59
2023/05/22 09:33:50;;;;;;;10.82;9.63;;;;;;;22.34;57.52;100841.78;5094873;28;20048;-59
2023/05/22 09:36:18;;;;;;;10.35;9.25;;;;;;;22.34;57.60;100839.09;5094346;28;20496;-59
2023/05/22 09:38:45;;;;;;;11.00;9.57;;;;;;;22.35;57.95;100835.38;5094684;28;20511;-59
2023/05/22 09:41:12;;;;;;;10.88;9.20;;;;;;;22.35;57.57;100838.94;5094748;28;20044;-53
2023/05/22 09:43:49;;;;;;;10.52;9.23;;;;;;;22.37;57.76;100842.34;5094420;28;20044;-50
2023/05/22 09:46:16;;;;;;;11.23;9.00;;;;;;;22.38;57.34;100832.41;5094391;28;20051;-50
2023/05/22 09:48:50;;;;;;;10.82;9.73;;;;;;;22.39;57.31;100828.69;5094399;28;20047;-52
2023/05/22 09:51:22;;;;;;;10.70;8.50;;;;;;;22.41;57.71;100832.94;5094506;28;20048;-53
2023/05/22 09:53:51;;;;;;;12.00;9.77;;;;;;;22.43;57.77;100830.94;5094501;28;20048;-52
2023/05/22 09:56:22;;;;;;;9.48;8.55;;;;;;;22.44;57.72;100829.06;5093863;28;20495;-53
2023/05/22 09:59:08;;;;;;;11.23;8.93;;;;;;;22.44;57.77;100829.06;5094082;28;20048;-53
2023/05/22 10:01:37;;;;;;;10.43;9.02;;;;;;;22.45;57.72;100831.63;5093916;28;20071;-59
2023/05/22 10:04:10;;;;;;;9.85;8.85;;;;;;;22.46;57.34;100819.00;5094126;28;20044;-59
2023/05/22 10:06:38;;;;;;;9.73;8.73;;;;;;;22.47;57.40;100815.28;5094143;28;20044;-59
2023/05/22 10:09:10;;;;;;;10.20;8.95;;;;;;;22.48;57.68;100825.06;5094073;28;20059;-59
2023/05/22 10:11:37;;;;;;;10.85;9.07;;;;;;;22.48;57.98;100811.59;5094069;28;20058;-53
2023/05/22 10:14:06;;;;;;;8.93;8.02;;;;;;;22.48;57.92;100819.69;5093801;28;20047;-51
2023/05/22 10:16:36;;;;;;;9.05;8.20;;;;;;;22.49;57.79;100813.31;5093844;28;20043;-53
2023/05/22 10:19:06;;;;;;;9.35;8.32;;;;;;;22.48;57.76;100810.75;5093992;28;20055;-52
2023/05/22 10:21:35;;;;;;;9.13;8.18;;;;;;;22.47;57.60;100815.28;5093989;28;20051;-52
2023/05/22 10:24:05;;;;;;;9.23;8.32;;;;;;;22.48;57.53;100816.97;5093794;28;20052;-53
2023/05/22 10:26:32;;;;;;;9.85;8.95;;;;;;;22.48;57.10;100811.59;5075751;28;20059;-53
2023/05/22 10:29:09;;;;;;;9.63;8.15;;;;;;;22.49;57.45;100813.31;5093256;28;20048;-52
2023/05/22 10:31:59;;;;;;;10.13;9.13;;;;;;;22.49;57.49;100807.06;5093548;28;20052;-59
2023/05/22 10:35:12;;;;;;;10.23;9.23;;;;;;;22.48;57.53;100806.19;5091801;28;20075;-59
2023/05/22 10:38:33;;;;;;;10.15;9.07;;;;;;;22.50;57.56;100806.06;5093201;28;20051;-52
2023/05/22 10:41:03;;;;;;;12.57;9.70;;;;;;;22.51;57.85;100810.44;5091562;28;20055;-52
2023/05/22 10:43:31;;;;;;;9.10;8.27;;;;;;;22.51;57.86;100811.28;5093482;28;20064;-53
2023/05/22 10:46:03;;;;;;;10.68;9.57;;;;;;;22.52;57.91;100810.28;5093528;28;20055;-52
2023/05/22 10:48:44;;;;;;;10.13;9.18;;;;;;;22.51;57.76;100808.59;5093465;28;20048;-53
2023/05/22 10:51:21;;;;;;;10.80;9.18;;;;;;;22.51;57.69;100805.03;5093310;28;20053;-59
2023/05/22 10:53:57;;;;;;;10.68;9.43;;;;;;;22.52;57.53;100812.97;5092942;28;20059;-59
2023/05/22 10:56:33;;;;;;;11.02;8.88;;;;;;;22.52;57.57;100806.72;5093184;28;20059;-59
2023/05/22 10:59:03;;;;;;;10.20;9.20;;;;;;;22.52;57.27;100804.03;5072563;28;20041;-59
2023/05/22 11:01:34;;;;;;;11.60;9.55;;;;;;;22.51;56.93;100795.09;5073123;28;20040;-52
2023/05/22 11:04:10;;;;;;;10.23;9.23;;;;;;;22.53;57.07;100805.75;5071947;28;20469;-50
2023/05/22 11:07:07;;;;;;;11.32;9.48;;;;;;;22.52;57.34;100801.34;5088990;28;20412;-51
2023/05/22 11:09:47;;;;;;;9.95;8.80;;;;;;;22.52;57.16;100796.78;5092940;28;20055;-52
2023/05/22 11:12:21;;;;;;;9.77;8.75;;;;;;;22.53;57.51;100793.13;5093166;28;20040;-49
2023/05/22 11:14:52;;;;;;;8.75;7.88;;;;;;;22.54;57.54;100791.25;5097014;28;20044;-49
2023/05/22 11:17:48;;;;;;;9.85;8.35;;;;;;;22.54;58.03;100785.84;5096469;28;20048;-49
2023/05/22 11:20:19;;;;;;;9.27;8.27;;;;;;;22.53;58.02;100782.31;5096866;28;20060;-58
2023/05/22 11:22:54;;;;;;;9.70;8.40;;;;;;;22.53;58.02;100789.56;5095830;28;20055;-59
2023/05/22 11:25:23;;;;;;;9.20;8.30;;;;;;;22.52;57.93;100780.59;5097091;28;20051;-58
2023/05/22 11:27:52;;;;;;;10.43;8.38;;;;;;;22.52;58.37;100780.59;5096676;28;20048;-59
2023/05/22 11:30:23;;;;;;;9.13;8.23;;;;;;;22.53;58.40;100781.47;5096841;28;20084;-58
2023/05/22 11:32:51;;;;;;;9.15;7.75;;;;;;;22.52;58.59;100779.75;5096767;28;20044;-59
2023/05/22 11:35:20;;;;;;;9.10;7.90;;;;;;;22.52;58.62;100769.81;5096043;28;20066;-58
2023/05/22 11:37:49;;;;;;;9.15;7.75;;;;;;;22.52;58.60;100774.34;5096771;28;20052;-59
2023/05/22 11:40:19;;;;;;;9.15;8.02;;;;;;;22.52;58.77;100771.66;5095342;28;20055;-49
2023/05/22 11:42:47;;;;;;;9.82;8.25;;;;;;;22.51;58.72;100769.97;5096517;28;20059;-49